createdAt,value
2017-11-11T00:00:14.531Z,6.00
2017-11-11T00:02:44.051Z,6.00
2017-11-11T00:05:13.537Z,6.00
2017-11-11T00:07:43.225Z,6.00
2017-11-11T00:10:13.667Z,6.00
2017-11-11T00:12:43.944Z,5.90
2017-11-11T00:15:13.742Z,6.00
2017-11-11T00:17:43.468Z,6.00
2017-11-11T00:20:13.139Z,6.00
2017-11-11T00:22:42.838Z,6.00
2017-11-11T00:25:12.549Z,5.90
2017-11-11T00:27:42.056Z,5.90
2017-11-11T00:30:11.727Z,5.90
2017-11-11T00:32:41.427Z,5.90
2017-11-11T00:35:11.115Z,6.00
2017-11-11T00:37:40.812Z,5.90
2017-11-11T00:40:11.235Z,5.90
2017-11-11T00:42:41.708Z,5.90
2017-11-11T00:45:11.379Z,5.90
2017-11-11T00:47:41.859Z,6.00
2017-11-11T00:50:11.558Z,6.00
2017-11-11T00:52:41.257Z,5.90
2017-11-11T00:55:10.919Z,5.90
2017-11-11T00:57:41.708Z,5.90
2017-11-11T01:00:11.379Z,5.90
2017-11-11T01:02:40.890Z,5.90
2017-11-11T01:05:11.350Z,5.90
2017-11-11T01:07:41.063Z,5.90
2017-11-11T01:10:10.732Z,5.90
2017-11-11T01:12:41.199Z,5.90
2017-11-11T01:15:10.892Z,5.90
2017-11-11T01:17:40.712Z,5.90
2017-11-11T01:20:10.374Z,5.90
2017-11-11T01:22:40.095Z,5.90
2017-11-11T01:25:10.528Z,5.90
2017-11-11T01:27:41.019Z,5.90
2017-11-11T01:30:10.339Z,5.90
2017-11-11T01:32:40.270Z,6.00
2017-11-11T01:35:10.715Z,5.90
2017-11-11T01:37:40.205Z,5.90
2017-11-11T01:40:10.326Z,5.90
2017-11-11T01:42:40.438Z,5.90
2017-11-11T01:45:10.912Z,5.90
2017-11-11T01:47:40.595Z,5.90
2017-11-11T01:50:10.324Z,5.90
2017-11-11T01:52:40.013Z,5.90
2017-11-11T01:55:10.494Z,5.90
2017-11-11T01:57:39.858Z,5.90
2017-11-11T02:00:09.198Z,5.90
2017-11-11T02:02:38.192Z,5.90
2017-11-11T02:05:07.523Z,5.90
2017-11-11T02:07:37.690Z,5.80
2017-11-11T02:10:07.156Z,5.80
2017-11-11T02:12:37.335Z,5.80
2017-11-11T02:15:06.464Z,5.80
2017-11-11T02:17:36.779Z,5.70
2017-11-11T02:20:05.611Z,5.70
2017-11-11T02:22:34.597Z,5.80
2017-11-11T02:25:04.255Z,5.70
2017-11-11T02:27:33.110Z,5.70
2017-11-11T02:30:02.141Z,5.70
2017-11-11T02:32:31.130Z,5.70
2017-11-11T02:35:00.135Z,5.70
2017-11-11T02:37:29.471Z,5.70
2017-11-11T02:39:58.248Z,5.60
2017-11-11T02:42:28.017Z,5.70
2017-11-11T02:44:57.165Z,5.70
2017-11-11T02:47:25.942Z,5.70
2017-11-11T02:49:55.613Z,5.70
2017-11-11T02:52:24.578Z,5.70
2017-11-11T02:54:53.720Z,5.70
2017-11-11T02:57:22.895Z,5.70
2017-11-11T02:59:52.551Z,5.80
2017-11-11T03:02:22.836Z,5.80
2017-11-11T03:04:52.311Z,5.80
2017-11-11T03:07:22.023Z,5.80
2017-11-11T03:09:51.699Z,5.80
2017-11-11T03:12:22.167Z,5.90
2017-11-11T03:14:51.499Z,5.90
2017-11-11T03:17:21.181Z,5.90
2017-11-11T03:19:50.556Z,5.90
2017-11-11T03:22:20.218Z,5.90
2017-11-11T03:24:49.916Z,5.90
2017-11-11T03:27:19.382Z,5.80
2017-11-11T03:29:49.109Z,5.90
2017-11-11T03:32:18.793Z,5.80
2017-11-11T03:34:48.523Z,5.90
2017-11-11T03:37:18.209Z,5.90
2017-11-11T03:39:47.967Z,5.80
2017-11-11T03:42:17.732Z,5.90
2017-11-11T03:44:47.467Z,5.90
2017-11-11T03:47:17.199Z,5.80
2017-11-11T03:52:57.443Z,5.90
2017-11-11T03:55:27.120Z,5.80
2017-11-11T03:57:56.852Z,5.80
2017-11-11T04:00:26.552Z,5.80
2017-11-11T04:02:56.027Z,5.90
2017-11-11T04:05:26.525Z,5.90
2017-11-11T04:07:56.201Z,5.90
2017-11-11T04:10:25.728Z,5.90
2017-11-11T04:12:55.212Z,5.90
2017-11-11T04:15:24.914Z,5.90
2017-11-11T04:17:54.647Z,5.90
2017-11-11T04:20:24.313Z,5.90
2017-11-11T04:22:54.764Z,5.90
2017-11-11T04:25:24.468Z,5.90
2017-11-11T04:27:54.132Z,5.90
2017-11-11T04:30:23.869Z,5.90
2017-11-11T04:32:54.295Z,5.90
2017-11-11T04:35:24.761Z,5.90
2017-11-11T04:37:54.476Z,5.90
2017-11-11T04:40:24.261Z,5.90
2017-11-11T04:42:53.995Z,5.90
2017-11-11T04:45:23.660Z,5.90
2017-11-11T04:47:54.123Z,5.80
2017-11-11T04:50:23.604Z,5.80
2017-11-11T04:52:54.089Z,5.90
2017-11-11T04:55:23.819Z,5.90
2017-11-11T04:57:54.054Z,5.90
2017-11-11T05:00:24.573Z,5.90
2017-11-11T05:02:54.825Z,5.90
2017-11-11T05:05:24.543Z,5.90
2017-11-11T05:07:54.219Z,5.90
2017-11-11T05:10:23.944Z,5.90
2017-11-11T05:12:54.368Z,6.00
2017-11-11T05:15:24.868Z,6.00
2017-11-11T05:17:54.540Z,6.00
2017-11-11T05:20:24.086Z,6.00
2017-11-11T05:22:53.771Z,6.00
2017-11-11T05:25:23.467Z,6.00
2017-11-11T05:27:53.163Z,6.00
2017-11-11T05:30:22.840Z,6.00
2017-11-11T05:32:52.038Z,5.90
2017-11-11T05:35:21.716Z,6.00
2017-11-11T05:37:51.086Z,5.90
2017-11-11T05:40:20.395Z,5.90
2017-11-11T05:42:50.066Z,5.90
2017-11-11T05:45:20.554Z,5.80
2017-11-11T05:47:50.248Z,5.80
2017-11-11T05:50:19.916Z,5.80
2017-11-11T05:52:50.404Z,5.90
2017-11-11T05:55:20.149Z,5.90
2017-11-11T05:57:50.584Z,5.90
2017-11-11T06:00:21.113Z,5.90
2017-11-11T06:02:50.798Z,5.90
2017-11-11T06:05:20.505Z,5.90
2017-11-11T06:07:50.473Z,5.90
2017-11-11T06:10:20.352Z,5.90
2017-11-11T06:12:50.106Z,5.90
2017-11-11T06:15:19.837Z,5.90
2017-11-11T06:17:49.592Z,5.90
2017-11-11T06:20:20.067Z,5.90
2017-11-11T06:22:49.816Z,5.90
2017-11-11T06:25:19.540Z,5.80
2017-11-11T06:27:49.235Z,5.90
2017-11-11T06:30:18.989Z,5.80
2017-11-11T06:32:48.699Z,5.70
2017-11-11T06:35:18.456Z,5.70
2017-11-11T06:37:48.351Z,5.70
2017-11-11T06:40:18.103Z,5.70
2017-11-11T06:42:47.853Z,5.60
2017-11-11T06:45:18.346Z,5.50
2017-11-11T06:47:48.835Z,5.50
2017-11-11T06:50:18.552Z,5.50
2017-11-11T06:52:48.121Z,5.40
2017-11-11T06:55:17.816Z,5.40
2017-11-11T06:57:48.312Z,5.30
2017-11-11T07:00:18.034Z,5.30
2017-11-11T07:02:47.742Z,5.30
2017-11-11T07:05:19.015Z,5.30
2017-11-11T07:07:49.478Z,5.30
2017-11-11T07:10:19.230Z,5.30
2017-11-11T07:12:48.620Z,5.30
2017-11-11T07:15:17.970Z,5.30
2017-11-11T07:17:47.351Z,5.30
2017-11-11T07:20:17.806Z,5.30
2017-11-11T07:22:48.308Z,5.30
2017-11-11T07:25:18.784Z,5.40
2017-11-11T07:27:48.607Z,5.30
2017-11-11T07:30:18.351Z,5.40
2017-11-11T07:32:48.823Z,5.40
2017-11-11T07:35:18.580Z,5.40
2017-11-11T07:37:48.306Z,5.50
2017-11-11T07:40:18.048Z,5.50
2017-11-11T07:42:47.744Z,5.60
2017-11-11T07:45:18.254Z,5.80
2017-11-11T07:47:48.013Z,5.70
2017-11-11T07:50:17.706Z,5.90
2017-11-11T07:52:47.464Z,5.90
2017-11-11T07:55:17.195Z,5.90
2017-11-11T07:57:47.703Z,5.80
2017-11-11T08:00:17.401Z,5.80
2017-11-11T08:02:47.170Z,5.80
2017-11-11T08:05:16.951Z,5.80
2017-11-11T08:07:46.662Z,5.80
2017-11-11T08:10:16.411Z,5.80
2017-11-11T08:12:46.029Z,5.80
2017-11-11T08:15:15.894Z,5.80
2017-11-11T08:17:45.414Z,5.80
2017-11-11T08:20:14.971Z,5.80
2017-11-11T08:22:44.479Z,5.80
2017-11-11T08:25:13.322Z,5.80
2017-11-11T08:27:43.034Z,5.90
2017-11-11T08:30:12.235Z,5.90
2017-11-11T08:32:42.734Z,6.00
2017-11-11T08:35:12.433Z,6.00
2017-11-11T08:37:42.748Z,6.10
2017-11-11T08:40:12.296Z,6.10
2017-11-11T08:42:42.791Z,6.20
2017-11-11T08:45:12.126Z,6.20
2017-11-11T08:47:42.619Z,6.20
2017-11-11T08:50:12.321Z,6.20
2017-11-11T08:52:42.407Z,6.30
2017-11-11T08:55:12.095Z,6.30
2017-11-11T08:57:42.799Z,6.20
2017-11-11T09:00:12.495Z,6.20
2017-11-11T09:02:42.281Z,6.20
2017-11-11T09:05:12.044Z,6.30
2017-11-11T09:07:41.946Z,6.30
2017-11-11T09:10:12.497Z,6.50
2017-11-11T09:12:43.031Z,6.50
2017-11-11T09:15:12.743Z,6.50
2017-11-11T09:17:43.235Z,6.50
2017-11-11T09:20:12.993Z,6.40
2017-11-11T09:22:43.460Z,6.50
2017-11-11T09:25:13.192Z,6.50
2017-11-11T09:27:42.943Z,6.60
2017-11-11T09:30:13.416Z,6.70
2017-11-11T09:32:43.149Z,6.70
2017-11-11T09:35:12.827Z,6.70
2017-11-11T09:37:42.556Z,6.70
2017-11-11T09:40:12.329Z,6.70
2017-11-11T09:42:42.043Z,6.80
2017-11-11T09:45:11.765Z,6.80
2017-11-11T09:47:41.507Z,6.90
2017-11-11T09:50:11.212Z,6.90
2017-11-11T09:52:41.732Z,7.00
2017-11-11T09:55:11.424Z,7.00
2017-11-11T09:57:41.149Z,7.00
2017-11-11T10:00:10.501Z,7.00
2017-11-11T10:02:41.290Z,6.90
2017-11-11T10:05:10.988Z,6.90
2017-11-11T10:07:40.745Z,6.90
2017-11-11T10:10:10.493Z,7.00
2017-11-11T10:12:42.894Z,6.90
2017-11-11T10:15:12.603Z,6.90
2017-11-11T10:17:42.347Z,6.90
2017-11-11T10:20:12.031Z,6.90
2017-11-11T10:22:41.764Z,6.90
2017-11-11T10:25:11.524Z,7.10
2017-11-11T10:27:41.025Z,7.30
2017-11-11T10:30:10.788Z,7.40
2017-11-11T10:32:40.141Z,7.50
2017-11-11T10:35:09.484Z,7.40
2017-11-11T10:37:38.863Z,7.30
2017-11-11T10:40:08.556Z,7.30
2017-11-11T10:42:38.283Z,7.20
2017-11-11T10:45:07.976Z,7.10
2017-11-11T10:47:37.723Z,7.00
2017-11-11T10:50:07.454Z,7.00
2017-11-11T10:52:37.971Z,6.90
2017-11-11T10:55:07.472Z,6.90
2017-11-11T10:57:37.055Z,6.90
2017-11-11T11:00:06.215Z,6.80
2017-11-11T11:02:36.303Z,6.80
2017-11-11T11:05:05.993Z,6.80
2017-11-11T11:07:35.549Z,6.90
2017-11-11T11:10:05.486Z,7.00
2017-11-11T11:12:35.291Z,7.10
2017-11-11T11:15:05.780Z,7.40
2017-11-11T11:17:35.479Z,7.40
2017-11-11T11:20:05.265Z,7.40
2017-11-11T11:22:35.041Z,7.40
2017-11-11T11:25:05.343Z,7.30
2017-11-11T11:27:34.920Z,7.30
2017-11-11T11:30:04.617Z,7.20
2017-11-11T11:32:34.176Z,7.20
2017-11-11T11:35:03.699Z,7.20
2017-11-11T11:37:34.318Z,7.20
2017-11-11T11:40:04.672Z,7.10
2017-11-11T11:42:34.376Z,7.10
2017-11-11T11:45:03.752Z,7.10
2017-11-11T11:47:33.548Z,7.10
2017-11-11T11:50:03.287Z,7.00
2017-11-11T11:52:33.740Z,6.90
2017-11-11T11:55:03.492Z,6.90
2017-11-11T11:57:33.178Z,7.00
2017-11-11T12:00:02.904Z,7.00
2017-11-11T12:02:31.958Z,7.00
2017-11-11T12:05:02.688Z,7.20
2017-11-11T12:07:32.388Z,7.20
2017-11-11T12:10:02.893Z,7.30
2017-11-11T12:12:31.916Z,7.30
2017-11-11T12:15:02.644Z,7.30
2017-11-11T12:17:32.468Z,7.30
2017-11-11T12:20:01.965Z,7.30
2017-11-11T12:22:31.768Z,7.50
2017-11-11T12:25:02.300Z,7.40
2017-11-11T12:27:31.979Z,7.40
2017-11-11T12:30:01.755Z,7.40
2017-11-11T12:32:31.286Z,7.50
2017-11-11T12:35:01.028Z,7.60
2017-11-11T12:37:30.730Z,7.70
2017-11-11T12:40:01.963Z,7.80
2017-11-11T12:42:32.298Z,7.90
2017-11-11T12:45:01.986Z,7.80
2017-11-11T12:47:31.720Z,7.80
2017-11-11T12:50:01.437Z,7.70
2017-11-11T12:52:31.173Z,7.80
2017-11-11T12:55:01.442Z,8.00
2017-11-11T12:57:31.000Z,8.00
2017-11-11T13:00:01.452Z,8.00
2017-11-11T13:02:30.964Z,8.00
2017-11-11T13:05:00.700Z,7.90
2017-11-11T13:07:30.388Z,7.90
2017-11-11T13:10:00.104Z,7.90
2017-11-11T13:12:29.832Z,7.80
2017-11-11T13:14:59.523Z,7.80
2017-11-11T13:17:29.261Z,7.70
2017-11-11T13:19:58.947Z,7.70
2017-11-11T13:22:28.692Z,7.60
2017-11-11T13:24:58.397Z,7.60
2017-11-11T13:27:28.137Z,7.60
2017-11-11T13:29:58.411Z,7.50
2017-11-11T13:32:28.133Z,7.50
2017-11-11T13:34:58.131Z,7.50
2017-11-11T13:37:27.637Z,7.40
2017-11-11T13:39:57.375Z,7.50
2017-11-11T13:42:27.116Z,7.40
2017-11-11T13:44:57.614Z,7.30
2017-11-11T13:47:27.361Z,7.30
2017-11-11T13:49:57.069Z,7.20
2017-11-11T13:52:27.611Z,7.10
2017-11-11T13:54:57.322Z,7.10
2017-11-11T13:57:27.069Z,6.90
2017-11-11T13:59:56.753Z,6.80
2017-11-11T14:02:26.525Z,6.80
2017-11-11T14:04:56.218Z,6.70
2017-11-11T14:07:25.958Z,6.70
2017-11-11T14:09:56.467Z,6.70
2017-11-11T14:12:26.214Z,6.70
2017-11-11T14:14:55.719Z,6.80
2017-11-11T14:17:25.284Z,6.80
2017-11-11T14:19:56.484Z,6.80
2017-11-11T14:22:26.211Z,6.80
2017-11-11T14:24:55.970Z,6.80
2017-11-11T14:27:26.442Z,6.80
2017-11-11T14:29:56.158Z,6.80
2017-11-11T14:32:25.667Z,6.80
2017-11-11T14:34:55.204Z,6.80
2017-11-11T14:37:24.702Z,6.70
2017-11-11T14:39:54.446Z,6.70
2017-11-11T14:42:24.906Z,6.70
2017-11-11T14:44:54.671Z,6.70
2017-11-11T14:47:24.408Z,6.70
2017-11-11T14:49:54.182Z,6.70
2017-11-11T14:52:23.869Z,6.70
2017-11-11T14:54:53.593Z,6.60
2017-11-11T14:57:23.328Z,6.60
2017-11-11T14:59:53.031Z,6.60
2017-11-11T15:02:23.610Z,6.60
2017-11-11T15:04:53.318Z,6.60
2017-11-11T15:07:23.060Z,6.50
2017-11-11T15:09:52.740Z,6.50
2017-11-11T15:12:23.129Z,6.50
2017-11-11T15:14:53.616Z,6.40
2017-11-11T15:17:23.327Z,6.40
2017-11-11T15:19:53.096Z,6.30
2017-11-11T15:22:22.442Z,6.30
2017-11-11T15:24:52.164Z,6.20
2017-11-11T15:27:21.225Z,6.30
2017-11-11T15:29:50.247Z,6.30
2017-11-11T15:32:19.939Z,6.30
2017-11-11T15:34:49.692Z,6.40
2017-11-11T15:37:19.430Z,6.30
2017-11-11T15:39:49.943Z,6.30
2017-11-11T15:42:19.642Z,6.30
2017-11-11T15:44:50.183Z,6.40
2017-11-11T15:47:19.920Z,6.40
2017-11-11T15:49:49.623Z,6.40
2017-11-11T15:52:20.964Z,6.40
2017-11-11T15:54:51.252Z,6.40
2017-11-11T15:57:20.753Z,6.30
2017-11-11T15:59:50.539Z,6.40
2017-11-11T16:02:20.250Z,6.30
2017-11-11T16:04:49.977Z,6.30
2017-11-11T16:07:19.662Z,6.30
2017-11-11T16:09:49.364Z,6.30
2017-11-11T16:12:19.072Z,6.30
2017-11-11T16:14:48.803Z,6.40
2017-11-11T16:17:18.359Z,6.40
2017-11-11T16:19:48.815Z,6.40
2017-11-11T16:22:18.554Z,6.40
2017-11-11T16:24:48.298Z,6.30
2017-11-11T16:27:17.997Z,6.30
2017-11-11T16:29:47.538Z,6.20
2017-11-11T16:32:17.800Z,6.20
2017-11-11T16:34:47.531Z,6.20
2017-11-11T16:37:17.314Z,6.10
2017-11-11T16:39:47.000Z,6.10
2017-11-11T16:42:17.480Z,6.00
2017-11-11T16:44:47.194Z,6.00
2017-11-11T16:47:17.518Z,6.00
2017-11-11T16:49:47.071Z,6.00
2017-11-11T16:52:17.425Z,5.90
2017-11-11T16:54:47.174Z,5.90
2017-11-11T16:57:16.879Z,5.90
2017-11-11T16:59:46.591Z,5.90
2017-11-11T17:02:16.342Z,5.90
2017-11-11T17:04:46.200Z,5.90
2017-11-11T17:07:15.968Z,5.90
2017-11-11T17:09:45.661Z,5.90
2017-11-11T17:12:16.194Z,5.90
2017-11-11T17:14:46.742Z,5.90
2017-11-11T17:17:16.445Z,5.90
2017-11-11T17:19:46.185Z,5.90
2017-11-11T17:22:15.862Z,5.90
2017-11-11T17:24:45.996Z,5.90
2017-11-11T17:27:15.711Z,5.90
2017-11-11T17:29:45.221Z,5.80
2017-11-11T17:32:14.948Z,5.90
2017-11-11T17:34:44.735Z,5.80
2017-11-11T17:37:14.270Z,5.80
2017-11-11T17:39:43.816Z,5.80
2017-11-11T17:42:14.280Z,5.80
2017-11-11T17:44:43.807Z,5.80
2017-11-11T17:47:13.287Z,5.80
2017-11-11T17:49:42.801Z,5.70
2017-11-11T17:52:12.628Z,5.60
2017-11-11T17:54:42.156Z,5.60
2017-11-11T17:57:11.668Z,5.60
2017-11-11T17:59:41.380Z,5.60
2017-11-11T18:02:11.055Z,5.60
2017-11-11T18:04:40.771Z,5.60
2017-11-11T18:07:10.451Z,5.50
2017-11-11T18:09:40.965Z,5.50
2017-11-11T18:12:11.411Z,5.50
2017-11-11T18:14:41.126Z,5.50
2017-11-11T18:17:10.853Z,5.50
2017-11-11T18:19:41.561Z,5.60
2017-11-11T18:22:11.271Z,5.60
2017-11-11T18:24:40.976Z,5.60
2017-11-11T18:27:10.685Z,5.70
2017-11-11T18:29:41.147Z,5.70
2017-11-11T18:32:11.155Z,5.70
2017-11-11T18:34:40.934Z,5.70
2017-11-11T18:37:11.398Z,5.60
2017-11-11T18:39:41.101Z,5.70
2017-11-11T18:42:10.777Z,5.70
2017-11-11T18:44:40.488Z,5.60
2017-11-11T18:47:10.253Z,5.60
2017-11-11T18:49:39.927Z,5.70
2017-11-11T18:52:09.718Z,5.60
2017-11-11T18:54:39.900Z,5.60
2017-11-11T18:57:09.667Z,5.60
2017-11-11T18:59:40.125Z,5.60
2017-11-11T19:02:09.848Z,5.60
2017-11-11T19:04:39.315Z,5.60
2017-11-11T19:07:09.598Z,5.60
2017-11-11T19:09:39.306Z,5.60
2017-11-11T19:12:08.979Z,5.70
2017-11-11T19:14:38.359Z,5.70
2017-11-11T19:17:08.813Z,5.70
2017-11-11T19:19:39.339Z,5.70
2017-11-11T19:22:09.020Z,5.70
2017-11-11T19:24:39.492Z,5.70
2017-11-11T19:27:09.206Z,5.70
2017-11-11T19:29:38.882Z,5.70
2017-11-11T19:32:08.599Z,5.70
2017-11-11T19:34:38.295Z,5.60
2017-11-11T19:37:08.779Z,5.60
2017-11-11T19:39:38.464Z,5.60
2017-11-11T19:42:08.164Z,5.70
2017-11-11T19:44:37.842Z,5.70
2017-11-11T19:47:07.584Z,5.70
2017-11-11T19:49:37.264Z,5.70
2017-11-11T19:52:07.752Z,5.60
2017-11-11T19:54:37.428Z,5.60
2017-11-11T19:57:07.395Z,5.60
2017-11-11T19:59:37.887Z,5.60
2017-11-11T20:02:07.585Z,5.60
2017-11-11T20:04:37.315Z,5.50
2017-11-11T20:07:06.844Z,5.50
2017-11-11T20:09:36.509Z,5.50
2017-11-11T20:12:06.234Z,5.40
2017-11-11T20:14:35.955Z,5.40
2017-11-11T20:17:05.657Z,5.40
2017-11-11T20:19:35.344Z,5.40
2017-11-11T20:22:05.113Z,5.30
2017-11-11T20:24:34.788Z,5.40
2017-11-11T20:27:04.484Z,5.30
2017-11-11T20:29:34.030Z,5.30
2017-11-11T20:32:03.724Z,5.30
2017-11-11T20:34:33.444Z,5.40
2017-11-11T20:37:03.112Z,5.40
2017-11-11T20:39:32.671Z,5.30
2017-11-11T20:42:02.159Z,5.20
2017-11-11T20:44:31.643Z,5.20
2017-11-11T20:47:01.168Z,5.20
2017-11-11T20:49:30.690Z,5.20
2017-11-11T20:52:00.415Z,5.10
2017-11-11T20:54:30.096Z,5.00
2017-11-11T20:56:59.816Z,5.00
2017-11-11T20:59:29.480Z,5.00
2017-11-11T21:01:59.195Z,5.00
2017-11-11T21:04:28.864Z,5.00
2017-11-11T21:06:58.575Z,5.10
2017-11-11T21:09:28.283Z,5.10
2017-11-11T21:11:58.047Z,5.10
2017-11-11T21:14:27.404Z,5.20
2017-11-11T21:16:57.071Z,5.20
2017-11-11T21:19:26.793Z,5.20
2017-11-11T21:21:55.862Z,5.20
2017-11-11T21:24:24.640Z,5.20
2017-11-11T21:26:54.360Z,5.20
2017-11-11T21:29:24.051Z,5.10
2017-11-11T21:31:52.894Z,5.10
2017-11-11T21:34:22.188Z,5.10
2017-11-11T21:36:51.864Z,5.00
2017-11-11T21:39:21.586Z,5.00
2017-11-11T21:41:51.253Z,4.90
2017-11-11T21:44:20.940Z,4.90
2017-11-11T21:46:50.488Z,4.90
2017-11-11T21:49:20.945Z,4.90
2017-11-11T21:51:50.684Z,4.90
2017-11-11T21:54:20.416Z,4.90
2017-11-11T21:56:50.104Z,4.90
2017-11-11T21:59:19.860Z,4.90
2017-11-11T22:01:50.318Z,4.80
2017-11-11T22:04:20.052Z,4.80
2017-11-11T22:06:49.771Z,4.90
2017-11-11T22:09:20.033Z,4.90
2017-11-11T22:11:50.604Z,5.00
2017-11-11T22:14:20.359Z,5.00
2017-11-11T22:16:50.044Z,5.10
2017-11-11T22:19:19.769Z,5.10
2017-11-11T22:21:49.440Z,5.10
2017-11-11T22:24:19.188Z,5.10
2017-11-11T22:26:48.875Z,5.20
2017-11-11T22:29:18.591Z,5.10
2017-11-11T22:31:48.260Z,5.10
2017-11-11T22:34:17.971Z,5.10
2017-11-11T22:36:47.661Z,5.10
2017-11-11T22:39:18.147Z,5.10
2017-11-11T22:41:47.952Z,5.10
2017-11-11T22:44:17.681Z,5.10
2017-11-11T22:46:47.422Z,5.10
2017-11-11T22:49:18.180Z,5.10
2017-11-11T22:51:47.898Z,5.10
2017-11-11T22:54:17.565Z,5.10
2017-11-11T22:56:47.287Z,5.10
2017-11-11T22:59:18.081Z,5.00
2017-11-11T23:01:47.752Z,4.90
2017-11-11T23:04:18.223Z,5.00
2017-11-11T23:06:47.899Z,5.00
2017-11-11T23:09:17.607Z,4.90
2017-11-11T23:11:47.300Z,4.90
2017-11-11T23:14:17.767Z,4.80
2017-11-11T23:16:47.480Z,4.80
2017-11-11T23:19:17.201Z,4.80
2017-11-11T23:21:46.337Z,4.80
2017-11-11T23:24:16.796Z,4.80
2017-11-11T23:26:46.463Z,4.80
2017-11-11T23:29:16.212Z,4.80
2017-11-11T23:31:45.902Z,4.90
2017-11-11T23:34:16.528Z,4.90
2017-11-11T23:36:46.232Z,4.90
2017-11-11T23:39:16.729Z,4.90
2017-11-11T23:41:46.720Z,4.90
2017-11-11T23:44:16.533Z,5.00
2017-11-11T23:46:46.230Z,5.00
2017-11-11T23:49:16.305Z,5.00
2017-11-11T23:51:45.964Z,4.90
2017-11-11T23:54:15.683Z,4.90
2017-11-11T23:56:45.374Z,4.90
2017-11-11T23:59:14.880Z,4.90
